Terminal Aerodrome Forecast
Issued by NWS North Platte, NE

Home | Current Version | Previous Version | Text Only | Print | Product List | Glossary Off
Versions: 1 2 3 4 5 6 7 8 9 10 11 12 13 14 15 16 17 18

000
FTUS43 KLBF 141338 AAA
TAFVTN
TAF AMD
KVTN 141338Z 1414/1512 28006KT P6SM BKN030 OVC070
     FM141500 27006KT P6SM BKN070
     FM141800 29012G19KT P6SM VCSH BKN070 OVC200
     FM142000 31013G19KT 5SM -RA OVC020
     FM142200 33013G19KT 2SM -SN OVC015
     FM150100 35014G21KT 2SM -SN OVC030
     FM150200 35014G21KT 4SM -SN OVC035
     FM150400 35015G23KT P6SM BKN045
     FM150600 34015G23KT P6SM SCT070=

USA.gov is the U.S. government's official web portal to all federal, state and local government web resources and services.